sensor_id;sensor_type;location;lat;lon;timestamp;P1;durP1;ratioP1;P2;durP2;ratioP2
37645;SDS011;23489;49.600;6.138;2022-10-15T13:54:07;1.55;;;0.60;;
37645;SDS011;23489;49.600;6.138;2022-10-15T13:56:36;1.35;;;1.10;;
37645;SDS011;23489;49.600;6.138;2022-10-15T13:59:06;1.45;;;1.10;;
37645;SDS011;23489;49.600;6.138;2022-10-15T14:01:47;1.20;;;1.10;;
37645;SDS011;23489;49.600;6.138;2022-10-15T14:04:16;2.70;;;1.50;;
37645;SDS011;23489;49.600;6.138;2022-10-15T14:07:01;1.77;;;1.33;;
37645;SDS011;23489;49.600;6.138;2022-10-15T14:09:48;2.20;;;1.50;;
37645;SDS011;23489;49.600;6.138;2022-10-15T14:12:15;2.20;;;1.35;;
37645;SDS011;23489;49.600;6.138;2022-10-15T14:14:42;3.30;;;2.03;;
37645;SDS011;23489;49.600;6.138;2022-10-15T14:17:21;2.53;;;1.60;;
37645;SDS011;23489;49.600;6.138;2022-10-15T14:19:49;1.70;;;1.30;;
37645;SDS011;23489;49.600;6.138;2022-10-15T14:22:22;1.30;;;1.20;;
37645;SDS011;23489;49.600;6.138;2022-10-15T14:24:49;1.70;;;1.40;;
37645;SDS011;23489;49.600;6.138;2022-10-15T14:27:21;2.65;;;1.50;;
37645;SDS011;23489;49.600;6.138;2022-10-15T14:29:49;1.83;;;1.58;;
37645;SDS011;23489;49.600;6.138;2022-10-15T14:34:51;2.90;;;1.70;;
37645;SDS011;23489;49.600;6.138;2022-10-15T14:42:32;1.90;;;1.53;;
37645;SDS011;23489;49.600;6.138;2022-10-15T14:48:19;2.85;;;1.50;;
37645;SDS011;23489;49.600;6.138;2022-10-15T14:50:46;2.40;;;1.38;;
37645;SDS011;23489;49.600;6.138;2022-10-15T14:53:23;2.22;;;1.52;;
37645;SDS011;23489;49.600;6.138;2022-10-15T14:55:58;2.80;;;1.55;;
37645;SDS011;23489;49.600;6.138;2022-10-15T14:58:26;1.90;;;1.40;;
37645;SDS011;23489;49.600;6.138;2022-10-15T15:00:54;2.40;;;1.73;;
37645;SDS011;23489;49.600;6.138;2022-10-15T15:03:27;1.52;;;1.42;;
37645;SDS011;23489;49.600;6.138;2022-10-15T15:05:55;3.05;;;1.90;;
37645;SDS011;23489;49.600;6.138;2022-10-15T15:08:22;2.50;;;1.77;;
37645;SDS011;23489;49.600;6.138;2022-10-15T15:10:49;4.22;;;1.80;;
37645;SDS011;23489;49.600;6.138;2022-10-15T15:13:20;2.38;;;1.80;;
37645;SDS011;23489;49.600;6.138;2022-10-15T15:15:47;2.15;;;1.70;;
37645;SDS011;23489;49.600;6.138;2022-10-15T15:18:13;2.38;;;1.30;;
37645;SDS011;23489;49.600;6.138;2022-10-15T15:20:40;2.13;;;1.50;;
37645;SDS011;23489;49.600;6.138;2022-10-15T15:23:15;2.78;;;1.30;;
37645;SDS011;23489;49.600;6.138;2022-10-15T15:25:43;3.50;;;1.60;;
37645;SDS011;23489;49.600;6.138;2022-10-15T15:28:12;3.83;;;2.50;;
37645;SDS011;23489;49.600;6.138;2022-10-15T15:30:40;2.33;;;1.50;;
37645;SDS011;23489;49.600;6.138;2022-10-15T15:33:11;1.85;;;1.45;;
37645;SDS011;23489;49.600;6.138;2022-10-15T15:38:06;2.33;;;1.40;;
37645;SDS011;23489;49.600;6.138;2022-10-15T15:40:32;2.10;;;1.30;;
37645;SDS011;23489;49.600;6.138;2022-10-15T15:42:59;3.10;;;1.30;;
37645;SDS011;23489;49.600;6.138;2022-10-15T15:45:25;2.70;;;1.50;;
37645;SDS011;23489;49.600;6.138;2022-10-15T15:47:51;1.73;;;1.30;;
37645;SDS011;23489;49.600;6.138;2022-10-15T15:50:18;1.20;;;1.10;;
37645;SDS011;23489;49.600;6.138;2022-10-15T15:52:45;1.40;;;1.30;;
37645;SDS011;23489;49.600;6.138;2022-10-15T15:55:11;3.08;;;1.48;;
37645;SDS011;23489;49.600;6.138;2022-10-15T15:57:38;2.90;;;1.30;;
37645;SDS011;23489;49.600;6.138;2022-10-15T16:00:04;2.30;;;1.50;;
37645;SDS011;23489;49.600;6.138;2022-10-15T16:02:31;2.20;;;1.70;;
37645;SDS011;23489;49.600;6.138;2022-10-15T16:04:57;1.98;;;1.45;;
37645;SDS011;23489;49.600;6.138;2022-10-15T16:07:22;2.30;;;1.60;;
37645;SDS011;23489;49.600;6.138;2022-10-15T16:09:48;1.92;;;1.60;;
37645;SDS011;23489;49.600;6.138;2022-10-15T16:12:14;2.83;;;1.80;;
37645;SDS011;23489;49.600;6.138;2022-10-15T16:14:39;4.40;;;1.80;;
37645;SDS011;23489;49.600;6.138;2022-10-15T16:17:05;3.43;;;2.20;;
37645;SDS011;23489;49.600;6.138;2022-10-15T16:19:31;3.13;;;1.80;;
37645;SDS011;23489;49.600;6.138;2022-10-15T16:21:56;4.80;;;2.30;;
37645;SDS011;23489;49.600;6.138;2022-10-15T16:24:22;3.20;;;2.00;;
37645;SDS011;23489;49.600;6.138;2022-10-15T16:26:48;4.17;;;2.20;;
37645;SDS011;23489;49.600;6.138;2022-10-15T16:29:13;3.42;;;2.42;;
37645;SDS011;23489;49.600;6.138;2022-10-15T16:31:41;3.40;;;2.10;;
37645;SDS011;23489;49.600;6.138;2022-10-15T16:34:07;2.97;;;2.30;;
37645;SDS011;23489;49.600;6.138;2022-10-15T16:36:33;2.70;;;2.20;;
37645;SDS011;23489;49.600;6.138;2022-10-15T16:39:00;2.60;;;1.80;;
37645;SDS011;23489;49.600;6.138;2022-10-15T16:41:26;2.35;;;1.50;;
37645;SDS011;23489;49.600;6.138;2022-10-15T16:43:51;2.63;;;1.73;;
37645;SDS011;23489;49.600;6.138;2022-10-15T16:46:17;1.90;;;1.63;;
37645;SDS011;23489;49.600;6.138;2022-10-15T16:48:44;2.53;;;1.58;;
37645;SDS011;23489;49.600;6.138;2022-10-15T16:51:14;2.10;;;1.63;;
37645;SDS011;23489;49.600;6.138;2022-10-15T16:53:41;2.20;;;1.70;;
37645;SDS011;23489;49.600;6.138;2022-10-15T16:56:09;3.97;;;1.80;;
37645;SDS011;23489;49.600;6.138;2022-10-15T16:58:38;3.80;;;2.00;;
37645;SDS011;23489;49.600;6.138;2022-10-15T17:01:05;5.80;;;2.40;;
37645;SDS011;23489;49.600;6.138;2022-10-15T17:03:33;3.05;;;2.08;;
37645;SDS011;23489;49.600;6.138;2022-10-15T17:06:02;2.60;;;2.03;;
37645;SDS011;23489;49.600;6.138;2022-10-15T17:08:35;2.92;;;1.90;;
37645;SDS011;23489;49.600;6.138;2022-10-15T17:13:51;1.63;;;1.50;;
37645;SDS011;23489;49.600;6.138;2022-10-15T17:16:19;3.00;;;1.67;;
37645;SDS011;23489;49.600;6.138;2022-10-15T17:18:50;3.60;;;1.80;;
37645;SDS011;23489;49.600;6.138;2022-10-15T17:21:18;3.07;;;2.20;;
37645;SDS011;23489;49.600;6.138;2022-10-15T17:23:45;1.83;;;1.63;;
37645;SDS011;23489;49.600;6.138;2022-10-15T17:26:13;2.90;;;1.83;;
37645;SDS011;23489;49.600;6.138;2022-10-15T17:28:44;2.60;;;1.90;;
37645;SDS011;23489;49.600;6.138;2022-10-15T17:31:12;2.63;;;1.80;;
37645;SDS011;23489;49.600;6.138;2022-10-15T17:33:40;3.35;;;1.80;;
37645;SDS011;23489;49.600;6.138;2022-10-15T17:36:10;1.98;;;1.77;;
37645;SDS011;23489;49.600;6.138;2022-10-15T17:38:40;3.00;;;2.33;;
37645;SDS011;23489;49.600;6.138;2022-10-15T17:41:08;2.10;;;1.90;;
37645;SDS011;23489;49.600;6.138;2022-10-15T17:43:38;2.50;;;2.25;;
37645;SDS011;23489;49.600;6.138;2022-10-15T17:46:06;2.15;;;1.90;;
37645;SDS011;23489;49.600;6.138;2022-10-15T17:48:34;3.83;;;1.88;;
37645;SDS011;23489;49.600;6.138;2022-10-15T17:51:02;2.30;;;2.10;;
37645;SDS011;23489;49.600;6.138;2022-10-15T17:53:28;2.40;;;1.80;;
37645;SDS011;23489;49.600;6.138;2022-10-15T17:55:55;3.20;;;1.90;;
37645;SDS011;23489;49.600;6.138;2022-10-15T17:58:21;2.80;;;2.05;;
37645;SDS011;23489;49.600;6.138;2022-10-15T18:00:54;3.58;;;2.20;;
37645;SDS011;23489;49.600;6.138;2022-10-15T18:03:21;3.00;;;2.40;;
37645;SDS011;23489;49.600;6.138;2022-10-15T18:05:48;2.25;;;2.05;;
37645;SDS011;23489;49.600;6.138;2022-10-15T18:08:14;3.05;;;2.10;;
37645;SDS011;23489;49.600;6.138;2022-10-15T18:10:40;2.60;;;2.20;;
37645;SDS011;23489;49.600;6.138;2022-10-15T18:13:06;4.93;;;2.20;;
37645;SDS011;23489;49.600;6.138;2022-10-15T18:15:32;2.80;;;2.30;;
37645;SDS011;23489;49.600;6.138;2022-10-15T18:17:58;3.95;;;2.50;;
37645;SDS011;23489;49.600;6.138;2022-10-15T18:20:24;3.67;;;2.30;;
37645;SDS011;23489;49.600;6.138;2022-10-15T18:22:50;3.28;;;2.30;;
37645;SDS011;23489;49.600;6.138;2022-10-15T18:25:16;2.95;;;2.30;;
37645;SDS011;23489;49.600;6.138;2022-10-15T18:27:42;3.87;;;2.10;;
37645;SDS011;23489;49.600;6.138;2022-10-15T18:30:08;3.03;;;2.20;;
37645;SDS011;23489;49.600;6.138;2022-10-15T18:32:36;3.25;;;2.60;;
37645;SDS011;23489;49.600;6.138;2022-10-15T18:35:03;5.53;;;2.30;;
37645;SDS011;23489;49.600;6.138;2022-10-15T18:37:29;3.20;;;2.30;;
37645;SDS011;23489;49.600;6.138;2022-10-15T18:39:55;4.82;;;2.30;;
37645;SDS011;23489;49.600;6.138;2022-10-15T18:42:21;2.65;;;2.30;;
37645;SDS011;23489;49.600;6.138;2022-10-15T18:44:46;3.67;;;2.00;;
37645;SDS011;23489;49.600;6.138;2022-10-15T18:47:12;3.28;;;1.90;;
37645;SDS011;23489;49.600;6.138;2022-10-15T18:49:40;4.30;;;1.90;;
37645;SDS011;23489;49.600;6.138;2022-10-15T18:52:07;4.32;;;1.90;;
37645;SDS011;23489;49.600;6.138;2022-10-15T18:54:33;3.03;;;1.92;;
37645;SDS011;23489;49.600;6.138;2022-10-15T18:57:01;3.28;;;1.90;;
37645;SDS011;23489;49.600;6.138;2022-10-15T18:59:28;2.78;;;1.95;;
37645;SDS011;23489;49.600;6.138;2022-10-15T19:01:54;2.25;;;1.90;;
37645;SDS011;23489;49.600;6.138;2022-10-15T19:04:21;3.73;;;1.97;;
37645;SDS011;23489;49.600;6.138;2022-10-15T19:06:49;2.80;;;1.90;;
37645;SDS011;23489;49.600;6.138;2022-10-15T19:09:17;3.30;;;2.00;;
37645;SDS011;23489;49.600;6.138;2022-10-15T19:11:45;3.05;;;1.95;;
37645;SDS011;23489;49.600;6.138;2022-10-15T19:14:12;3.33;;;2.08;;
37645;SDS011;23489;49.600;6.138;2022-10-15T19:16:40;3.25;;;2.00;;
37645;SDS011;23489;49.600;6.138;2022-10-15T19:19:10;3.05;;;1.90;;
37645;SDS011;23489;49.600;6.138;2022-10-15T19:21:39;4.47;;;2.20;;
37645;SDS011;23489;49.600;6.138;2022-10-15T19:24:05;2.60;;;2.30;;
37645;SDS011;23489;49.600;6.138;2022-10-15T19:26:31;3.72;;;2.63;;
37645;SDS011;23489;49.600;6.138;2022-10-15T19:28:57;3.67;;;2.85;;
37645;SDS011;23489;49.600;6.138;2022-10-15T19:33:50;3.47;;;2.53;;
37645;SDS011;23489;49.600;6.138;2022-10-15T19:36:22;5.47;;;3.10;;
37645;SDS011;23489;49.600;6.138;2022-10-15T19:39:10;4.72;;;2.67;;
37645;SDS011;23489;49.600;6.138;2022-10-15T19:42:06;4.70;;;2.20;;
37645;SDS011;23489;49.600;6.138;2022-10-15T19:44:33;3.90;;;2.07;;
37645;SDS011;23489;49.600;6.138;2022-10-15T19:46:58;4.30;;;2.45;;
37645;SDS011;23489;49.600;6.138;2022-10-15T19:49:24;4.22;;;2.45;;
37645;SDS011;23489;49.600;6.138;2022-10-15T19:51:50;3.37;;;2.43;;
37645;SDS011;23489;49.600;6.138;2022-10-15T19:54:16;3.53;;;2.78;;
37645;SDS011;23489;49.600;6.138;2022-10-15T19:56:41;5.83;;;2.67;;
37645;SDS011;23489;49.600;6.138;2022-10-15T19:59:08;2.37;;;2.17;;
37645;SDS011;23489;49.600;6.138;2022-10-15T20:01:35;3.40;;;2.35;;
37645;SDS011;23489;49.600;6.138;2022-10-15T20:04:01;3.03;;;2.63;;
37645;SDS011;23489;49.600;6.138;2022-10-15T20:06:27;3.40;;;2.13;;
37645;SDS011;23489;49.600;6.138;2022-10-15T20:08:53;2.88;;;2.13;;
37645;SDS011;23489;49.600;6.138;2022-10-15T20:11:19;3.20;;;2.30;;
37645;SDS011;23489;49.600;6.138;2022-10-15T20:13:45;3.20;;;2.27;;
37645;SDS011;23489;49.600;6.138;2022-10-15T20:16:11;2.63;;;2.30;;
37645;SDS011;23489;49.600;6.138;2022-10-15T20:18:40;2.63;;;2.40;;
37645;SDS011;23489;49.600;6.138;2022-10-15T20:21:07;2.63;;;2.20;;
37645;SDS011;23489;49.600;6.138;2022-10-15T20:23:35;2.97;;;2.33;;
37645;SDS011;23489;49.600;6.138;2022-10-15T20:26:03;3.50;;;2.40;;
37645;SDS011;23489;49.600;6.138;2022-10-15T20:28:29;4.90;;;2.50;;
37645;SDS011;23489;49.600;6.138;2022-10-15T20:30:55;3.30;;;2.20;;
37645;SDS011;23489;49.600;6.138;2022-10-15T20:33:21;5.57;;;2.90;;
37645;SDS011;23489;49.600;6.138;2022-10-15T20:35:46;3.10;;;2.40;;
37645;SDS011;23489;49.600;6.138;2022-10-15T20:38:14;3.65;;;2.80;;
37645;SDS011;23489;49.600;6.138;2022-10-15T20:40:41;5.20;;;3.60;;
37645;SDS011;23489;49.600;6.138;2022-10-15T20:43:07;5.82;;;3.38;;
37645;SDS011;23489;49.600;6.138;2022-10-15T20:45:35;5.80;;;3.78;;
37645;SDS011;23489;49.600;6.138;2022-10-15T20:48:06;4.25;;;2.53;;
37645;SDS011;23489;49.600;6.138;2022-10-15T20:50:39;4.47;;;2.80;;
37645;SDS011;23489;49.600;6.138;2022-10-15T20:53:05;6.27;;;3.57;;
37645;SDS011;23489;49.600;6.138;2022-10-15T20:55:31;4.03;;;3.50;;
37645;SDS011;23489;49.600;6.138;2022-10-15T20:57:58;5.15;;;3.60;;
37645;SDS011;23489;49.600;6.138;2022-10-15T21:00:24;5.30;;;3.25;;
37645;SDS011;23489;49.600;6.138;2022-10-15T21:02:49;3.00;;;2.70;;
37645;SDS011;23489;49.600;6.138;2022-10-15T21:05:15;4.03;;;2.83;;
37645;SDS011;23489;49.600;6.138;2022-10-15T21:07:41;3.22;;;2.72;;
37645;SDS011;23489;49.600;6.138;2022-10-15T21:10:06;5.93;;;2.60;;
37645;SDS011;23489;49.600;6.138;2022-10-15T21:12:32;2.88;;;2.40;;
37645;SDS011;23489;49.600;6.138;2022-10-15T21:14:58;2.83;;;2.40;;
37645;SDS011;23489;49.600;6.138;2022-10-15T21:17:24;4.00;;;2.50;;
37645;SDS011;23489;49.600;6.138;2022-10-15T21:19:49;2.92;;;2.47;;
37645;SDS011;23489;49.600;6.138;2022-10-15T21:22:15;4.87;;;2.40;;
37645;SDS011;23489;49.600;6.138;2022-10-15T21:24:40;3.00;;;2.30;;
37645;SDS011;23489;49.600;6.138;2022-10-15T21:27:06;6.70;;;2.70;;
37645;SDS011;23489;49.600;6.138;2022-10-15T21:29:34;3.53;;;2.20;;
37645;SDS011;23489;49.600;6.138;2022-10-15T21:32:00;5.05;;;2.20;;
37645;SDS011;23489;49.600;6.138;2022-10-15T21:34:26;4.03;;;2.20;;
37645;SDS011;23489;49.600;6.138;2022-10-15T21:36:54;4.00;;;2.25;;
37645;SDS011;23489;49.600;6.138;2022-10-15T21:39:20;4.28;;;2.55;;
37645;SDS011;23489;49.600;6.138;2022-10-15T21:41:46;5.10;;;2.95;;
37645;SDS011;23489;49.600;6.138;2022-10-15T21:44:12;2.72;;;2.50;;
37645;SDS011;23489;49.600;6.138;2022-10-15T21:46:41;6.82;;;2.50;;
37645;SDS011;23489;49.600;6.138;2022-10-15T21:49:07;3.07;;;2.20;;
37645;SDS011;23489;49.600;6.138;2022-10-15T21:51:33;3.53;;;2.40;;
37645;SDS011;23489;49.600;6.138;2022-10-15T21:54:00;4.22;;;2.42;;
37645;SDS011;23489;49.600;6.138;2022-10-15T21:56:27;4.45;;;2.88;;
37645;SDS011;23489;49.600;6.138;2022-10-15T21:58:53;4.63;;;2.60;;
37645;SDS011;23489;49.600;6.138;2022-10-15T22:01:23;5.40;;;3.70;;
37645;SDS011;23489;49.600;6.138;2022-10-15T22:03:51;5.40;;;3.30;;
37645;SDS011;23489;49.600;6.138;2022-10-15T22:06:21;6.43;;;3.42;;
37645;SDS011;23489;49.600;6.138;2022-10-15T22:08:47;6.60;;;3.30;;
37645;SDS011;23489;49.600;6.138;2022-10-15T22:11:17;5.70;;;3.38;;
37645;SDS011;23489;49.600;6.138;2022-10-15T22:13:46;5.72;;;2.90;;
37645;SDS011;23489;49.600;6.138;2022-10-15T22:16:14;3.70;;;2.77;;
37645;SDS011;23489;49.600;6.138;2022-10-15T22:18:41;3.72;;;2.70;;
37645;SDS011;23489;49.600;6.138;2022-10-15T22:26:19;4.80;;;2.85;;
37645;SDS011;23489;49.600;6.138;2022-10-15T22:28:46;3.67;;;2.78;;
37645;SDS011;23489;49.600;6.138;2022-10-15T22:31:13;4.32;;;2.60;;
37645;SDS011;23489;49.600;6.138;2022-10-15T22:33:43;3.47;;;2.70;;
37645;SDS011;23489;49.600;6.138;2022-10-15T22:36:17;4.10;;;2.40;;
37645;SDS011;23489;49.600;6.138;2022-10-15T22:38:47;3.80;;;2.30;;
37645;SDS011;23489;49.600;6.138;2022-10-15T22:41:17;2.72;;;2.53;;
37645;SDS011;23489;49.600;6.138;2022-10-15T22:43:42;2.50;;;2.10;;
37645;SDS011;23489;49.600;6.138;2022-10-15T22:46:08;3.28;;;2.22;;
37645;SDS011;23489;49.600;6.138;2022-10-15T22:48:35;3.17;;;2.40;;
37645;SDS011;23489;49.600;6.138;2022-10-15T22:51:03;3.50;;;2.38;;
37645;SDS011;23489;49.600;6.138;2022-10-15T22:53:30;2.97;;;2.28;;
37645;SDS011;23489;49.600;6.138;2022-10-15T22:55:57;3.90;;;2.47;;
37645;SDS011;23489;49.600;6.138;2022-10-15T22:58:25;3.50;;;2.30;;
37645;SDS011;23489;49.600;6.138;2022-10-15T23:00:51;3.00;;;2.40;;
37645;SDS011;23489;49.600;6.138;2022-10-15T23:03:18;2.90;;;2.15;;
37645;SDS011;23489;49.600;6.138;2022-10-15T23:05:51;3.10;;;2.20;;
37645;SDS011;23489;49.600;6.138;2022-10-15T23:08:18;2.63;;;2.30;;
37645;SDS011;23489;49.600;6.138;2022-10-15T23:10:44;2.47;;;2.28;;
37645;SDS011;23489;49.600;6.138;2022-10-15T23:13:10;4.07;;;2.43;;
37645;SDS011;23489;49.600;6.138;2022-10-15T23:15:35;3.42;;;2.20;;
37645;SDS011;23489;49.600;6.138;2022-10-15T23:18:01;3.70;;;2.37;;
37645;SDS011;23489;49.600;6.138;2022-10-15T23:20:27;4.50;;;2.47;;
37645;SDS011;23489;49.600;6.138;2022-10-15T23:22:54;2.20;;;2.00;;
37645;SDS011;23489;49.600;6.138;2022-10-15T23:25:20;3.10;;;1.90;;
37645;SDS011;23489;49.600;6.138;2022-10-15T23:27:45;2.63;;;2.13;;
37645;SDS011;23489;49.600;6.138;2022-10-15T23:30:11;3.17;;;2.50;;
37645;SDS011;23489;49.600;6.138;2022-10-15T23:32:37;2.33;;;2.03;;
37645;SDS011;23489;49.600;6.138;2022-10-15T23:35:04;3.00;;;2.38;;
37645;SDS011;23489;49.600;6.138;2022-10-15T23:37:31;2.83;;;2.30;;
37645;SDS011;23489;49.600;6.138;2022-10-15T23:39:57;2.70;;;2.25;;
37645;SDS011;23489;49.600;6.138;2022-10-15T23:42:22;3.00;;;2.40;;
37645;SDS011;23489;49.600;6.138;2022-10-15T23:44:48;2.75;;;2.10;;
37645;SDS011;23489;49.600;6.138;2022-10-15T23:47:14;4.65;;;2.20;;
37645;SDS011;23489;49.600;6.138;2022-10-15T23:49:39;2.97;;;2.27;;
37645;SDS011;23489;49.600;6.138;2022-10-15T23:52:05;3.13;;;2.47;;
37645;SDS011;23489;49.600;6.138;2022-10-15T23:54:30;3.30;;;2.55;;
37645;SDS011;23489;49.600;6.138;2022-10-15T23:56:56;3.53;;;2.40;;
37645;SDS011;23489;49.600;6.138;2022-10-15T23:59:22;4.07;;;2.40;;
